Search for airport 
image banner adimage banner adimage banner ad
image banner ad

68PA - Don's Place Airpark

Located in Hamburg, United States

ICAO - 68PA, IATA -

Data provided by Airmate  

General information

Coordinates: N40°31'5" W75°54'59"
Elevation is 510 feet MSL.
Magnetic variation is -11° East
View others Airports in Pennsylvania

Operational data

Special qualification required
Current time UTC:
Current local time:
METAR: KRDG 091254Z 00000KT 10SM CLR 08/06 A3009 RMK AO2 SLP196 T00830056 $
TAF: KRDG 091120Z 0912/1012 VRB02KT P6SM BKN200 TEMPO 0918/0920 4SM -RA OVC015 FM092000 15005KT P6SM VCSH OVC020 FM100500 VRB02KT P6SM OVC040 WS020/23040KT FM100900 31006KT P6SM BKN035
View NOTAMs / SUP AIP / TFR affecting this airport [VIEW]
Communications frequencies: [VIEW]

Runways:

RWY identifierQFULength (ft)Width (ft)SurfaceLDA (ft)
091800100GRASS
271800100GRASS

Airport contact information

Address: Hamburg United States

Satellite view of 68PA